createdAt,value
2023-03-28T00:02:50.390Z,100.00
2023-03-28T00:06:54.114Z,100.00
2023-03-28T00:11:04.744Z,100.00
2023-03-28T00:15:09.527Z,100.00
2023-03-28T00:19:16.474Z,100.00
2023-03-28T00:23:19.236Z,100.00
2023-03-28T00:27:22.118Z,100.00
2023-03-28T00:31:27.190Z,100.00
2023-03-28T00:35:29.956Z,100.00
2023-03-28T00:39:33.233Z,100.00
2023-03-28T00:43:39.122Z,100.00
2023-03-28T00:47:45.777Z,100.00
2023-03-28T00:51:52.266Z,100.00
2023-03-28T00:55:59.085Z,100.00
2023-03-28T01:00:02.253Z,100.00
2023-03-28T01:04:10.203Z,100.00
2023-03-28T01:08:16.797Z,100.00
2023-03-28T01:12:21.300Z,100.00
2023-03-28T01:16:24.346Z,100.00
2023-03-28T01:20:40.023Z,100.00
2023-03-28T01:25:07.780Z,100.00
2023-03-28T01:30:10.158Z,100.00
2023-03-28T01:34:57.043Z,100.00
2023-03-28T01:39:10.350Z,100.00
2023-03-28T01:43:25.700Z,100.00
2023-03-28T01:47:38.046Z,100.00
2023-03-28T01:51:56.394Z,100.00
2023-03-28T01:56:05.641Z,100.00
2023-03-28T02:00:15.626Z,100.00
2023-03-28T02:04:39.526Z,100.00
2023-03-28T02:08:46.321Z,100.00
2023-03-28T02:13:10.247Z,100.00
2023-03-28T02:17:23.586Z,100.00
2023-03-28T02:22:08.186Z,100.00
2023-03-28T02:26:29.694Z,100.00
2023-03-28T02:30:55.292Z,100.00
2023-03-28T02:34:58.388Z,100.00
2023-03-28T02:39:19.643Z,100.00
2023-03-28T02:43:37.238Z,100.00
2023-03-28T02:47:52.070Z,100.00
2023-03-28T02:52:09.225Z,100.00
2023-03-28T02:56:19.184Z,100.00
2023-03-28T03:00:49.539Z,100.00
2023-03-28T03:04:57.562Z,100.00
2023-03-28T03:09:00.867Z,100.00
2023-03-28T03:13:03.650Z,100.00
2023-03-28T03:17:07.152Z,100.00
2023-03-28T03:21:11.225Z,100.00
2023-03-28T03:25:18.575Z,100.00
2023-03-28T03:29:38.522Z,100.00
2023-03-28T03:33:44.616Z,100.00
2023-03-28T03:37:50.580Z,100.00
2023-03-28T03:41:53.287Z,100.00
2023-03-28T03:45:57.706Z,100.00
2023-03-28T03:50:03.703Z,100.00
2023-03-28T03:54:11.636Z,100.00
2023-03-28T03:58:15.519Z,100.00
2023-03-28T04:02:18.933Z,100.00
2023-03-28T04:06:30.475Z,100.00
2023-03-28T04:10:34.825Z,100.00
2023-03-28T04:14:37.984Z,100.00
2023-03-28T04:18:59.519Z,100.00
2023-03-28T04:23:05.660Z,100.00
2023-03-28T04:27:10.701Z,100.00
2023-03-28T04:31:13.933Z,100.00
2023-03-28T04:35:36.607Z,100.00
2023-03-28T04:39:41.701Z,100.00
2023-03-28T04:44:04.274Z,100.00
2023-03-28T04:48:13.545Z,100.00
2023-03-28T04:52:16.910Z,100.00
2023-03-28T04:56:23.378Z,100.00
2023-03-28T05:00:28.052Z,100.00
2023-03-28T05:04:40.358Z,100.00
2023-03-28T05:08:44.778Z,100.00
2023-03-28T05:12:47.846Z,100.00
2023-03-28T05:16:53.628Z,100.00
2023-03-28T05:21:14.908Z,100.00
2023-03-28T05:25:17.762Z,100.00
2023-03-28T05:29:20.698Z,100.00
2023-03-28T05:33:25.618Z,100.00
2023-03-28T05:37:28.809Z,100.00
2023-03-28T05:41:31.756Z,100.00
2023-03-28T05:45:34.506Z,100.00
2023-03-28T05:49:49.089Z,100.00
2023-03-28T05:53:52.303Z,100.00
2023-03-28T05:57:55.930Z,100.00
2023-03-28T06:02:01.483Z,100.00
2023-03-28T06:06:06.150Z,100.00
2023-03-28T06:10:10.266Z,100.00
2023-03-28T06:14:13.679Z,100.00
2023-03-28T06:18:16.967Z,100.00
2023-03-28T06:22:23.336Z,100.00
2023-03-28T06:26:32.347Z,100.00
2023-03-28T06:30:35.297Z,100.00
2023-03-28T06:34:38.054Z,100.00
2023-03-28T06:38:42.170Z,100.00
2023-03-28T06:42:44.954Z,100.00
2023-03-28T06:47:08.160Z,100.00
2023-03-28T06:51:12.775Z,100.00
2023-03-28T06:55:17.543Z,100.00
2023-03-28T06:59:20.247Z,100.00
2023-03-28T07:03:30.000Z,100.00
2023-03-28T07:07:33.911Z,100.00
2023-03-28T07:11:38.049Z,100.00
2023-03-28T07:15:41.155Z,100.00
2023-03-28T07:19:45.309Z,100.00
2023-03-28T07:23:48.259Z,100.00
2023-03-28T07:27:56.560Z,100.00
2023-03-28T07:31:59.362Z,100.00
2023-03-28T07:36:08.663Z,100.00
2023-03-28T07:40:13.003Z,100.00
2023-03-28T07:44:18.560Z,100.00
2023-03-28T07:48:21.795Z,100.00
2023-03-28T07:52:24.515Z,100.00
2023-03-28T07:56:27.714Z,100.00
2023-03-28T08:00:52.402Z,100.00
2023-03-28T08:05:13.647Z,100.00
2023-03-28T08:09:17.917Z,100.00
2023-03-28T08:13:24.352Z,100.00
2023-03-28T08:17:28.655Z,100.00
2023-03-28T08:21:32.734Z,100.00
2023-03-28T08:25:35.414Z,97.76
2023-03-28T08:29:38.420Z,95.94
2023-03-28T08:33:44.005Z,93.30
2023-03-28T08:37:47.708Z,94.59
2023-03-28T08:42:05.942Z,92.88
2023-03-28T08:46:14.050Z,88.12
2023-03-28T08:50:23.600Z,89.09
2023-03-28T08:54:32.307Z,84.67
2023-03-28T08:58:42.483Z,82.40
2023-03-28T09:02:45.467Z,77.86
2023-03-28T09:06:58.345Z,79.85
2023-03-28T09:11:08.489Z,74.99
2023-03-28T09:15:25.241Z,72.31
2023-03-28T09:19:48.725Z,71.02
2023-03-28T09:24:47.962Z,68.76
2023-03-28T09:28:58.242Z,67.37
2023-03-28T09:33:06.438Z,65.14
2023-03-28T09:37:22.629Z,67.56
2023-03-28T09:41:34.282Z,67.42
2023-03-28T09:46:00.359Z,64.32
2023-03-28T09:50:22.106Z,63.24
2023-03-28T09:54:36.100Z,61.78
2023-03-28T09:58:51.430Z,62.18
2023-03-28T10:02:58.841Z,60.69
2023-03-28T10:07:30.415Z,58.87
2023-03-28T10:11:48.783Z,59.55
2023-03-28T10:15:57.800Z,59.58
2023-03-28T10:20:17.443Z,59.18
2023-03-28T10:24:23.441Z,59.43
2023-03-28T10:28:33.894Z,60.38
2023-03-28T10:32:38.341Z,60.87
2023-03-28T10:36:57.913Z,59.45
2023-03-28T10:41:13.469Z,56.52
2023-03-28T10:45:33.439Z,55.88
2023-03-28T10:49:44.303Z,56.00
2023-03-28T10:54:02.140Z,55.54
2023-03-28T10:58:16.940Z,56.16
2023-03-28T11:02:56.698Z,57.06
2023-03-28T11:07:11.202Z,56.85
2023-03-28T11:11:52.821Z,58.30
2023-03-28T11:16:01.643Z,57.88
2023-03-28T11:20:45.377Z,58.93
2023-03-28T11:24:58.557Z,56.74
2023-03-28T11:29:40.150Z,56.52
2023-03-28T11:33:56.406Z,55.58
2023-03-28T11:38:05.212Z,54.94
2023-03-28T11:42:20.639Z,54.42
2023-03-28T11:46:30.815Z,53.33
2023-03-28T11:50:46.106Z,52.29
2023-03-28T11:55:07.637Z,53.11
2023-03-28T11:59:15.563Z,53.73
2023-03-28T12:03:25.625Z,54.26
2023-03-28T12:07:38.515Z,52.17
2023-03-28T12:12:06.154Z,53.11
2023-03-28T12:16:15.828Z,51.44
2023-03-28T12:20:29.203Z,52.38
2023-03-28T12:24:42.977Z,53.34
2023-03-28T12:28:54.182Z,51.86
2023-03-28T12:33:09.725Z,50.58
2023-03-28T12:37:26.252Z,50.36
2023-03-28T12:41:37.227Z,49.78
2023-03-28T12:45:44.365Z,50.01
2023-03-28T12:49:53.410Z,49.95
2023-03-28T12:54:08.343Z,50.39
2023-03-28T12:58:20.350Z,50.38
2023-03-28T13:02:34.248Z,48.32
2023-03-28T13:06:47.380Z,49.44
2023-03-28T13:11:06.454Z,49.56
2023-03-28T13:15:28.588Z,49.25
2023-03-28T13:19:51.678Z,49.50
2023-03-28T13:23:55.850Z,50.46
2023-03-28T13:28:01.342Z,49.92
2023-03-28T13:32:06.729Z,50.18
2023-03-28T13:36:28.596Z,48.41
2023-03-28T13:40:48.108Z,48.48
2023-03-28T13:44:55.293Z,46.92
2023-03-28T13:49:06.006Z,47.69
2023-03-28T13:53:09.004Z,45.67
2023-03-28T13:57:18.140Z,46.94
2023-03-28T14:01:24.641Z,45.68
2023-03-28T14:05:29.590Z,47.11
2023-03-28T14:09:34.377Z,46.27
2023-03-28T14:13:38.828Z,46.62
2023-03-28T14:17:41.675Z,45.22
2023-03-28T14:21:45.068Z,45.78
2023-03-28T14:25:47.834Z,46.57
2023-03-28T14:29:56.149Z,46.97
2023-03-28T14:33:59.477Z,46.39
2023-03-28T14:38:05.528Z,47.36
2023-03-28T14:42:13.299Z,48.04
2023-03-28T14:46:18.241Z,48.41
2023-03-28T14:50:22.399Z,48.98
2023-03-28T14:54:29.633Z,48.56
2023-03-28T14:58:32.438Z,49.22
2023-03-28T15:02:41.566Z,49.20
2023-03-28T15:06:44.307Z,48.26
2023-03-28T15:10:50.832Z,48.42
2023-03-28T15:14:53.824Z,48.39
2023-03-28T15:19:06.806Z,49.12
2023-03-28T15:23:16.821Z,48.94
2023-03-28T15:27:26.956Z,49.81
2023-03-28T15:31:30.169Z,50.08
2023-03-28T15:35:39.518Z,49.45
2023-03-28T15:39:43.722Z,49.58
2023-03-28T15:44:00.324Z,49.42
2023-03-28T15:48:03.230Z,48.66
2023-03-28T15:52:16.152Z,48.70
2023-03-28T15:56:24.268Z,49.28
2023-03-28T16:00:38.253Z,49.93
2023-03-28T16:04:40.934Z,50.00
2023-03-28T16:08:47.048Z,48.98
2023-03-28T16:12:51.394Z,48.49
2023-03-28T16:17:28.779Z,48.77
2023-03-28T16:21:43.921Z,48.39
2023-03-28T16:25:48.047Z,47.85
2023-03-28T16:29:51.076Z,48.52
2023-03-28T16:33:53.761Z,49.14
2023-03-28T16:37:56.879Z,49.86
2023-03-28T16:42:00.890Z,49.65
2023-03-28T16:46:03.869Z,49.88
2023-03-28T16:50:09.227Z,49.81
2023-03-28T16:54:12.014Z,49.89
2023-03-28T16:58:16.027Z,50.36
2023-03-28T17:02:21.510Z,50.42
2023-03-28T17:06:24.932Z,49.73
2023-03-28T17:10:29.383Z,50.51
2023-03-28T17:14:33.631Z,50.34
2023-03-28T17:18:37.395Z,50.66
2023-03-28T17:22:42.408Z,50.76
2023-03-28T17:26:45.188Z,50.61
2023-03-28T17:30:49.413Z,51.11
2023-03-28T17:34:52.251Z,50.71
2023-03-28T17:38:56.681Z,51.26
2023-03-28T17:42:59.361Z,51.52
2023-03-28T17:47:03.644Z,51.66
2023-03-28T17:51:07.476Z,52.36
2023-03-28T17:55:10.491Z,52.36
2023-03-28T17:59:13.693Z,52.29
2023-03-28T18:03:17.912Z,52.51
2023-03-28T18:07:32.796Z,53.38
2023-03-28T18:11:39.276Z,52.42
2023-03-28T18:15:42.971Z,53.66
2023-03-28T18:19:47.092Z,53.17
2023-03-28T18:23:50.325Z,54.13
2023-03-28T18:27:53.080Z,54.54
2023-03-28T18:31:55.794Z,54.25
2023-03-28T18:36:00.126Z,55.23
2023-03-28T18:40:07.180Z,55.17
2023-03-28T18:44:11.612Z,55.37
2023-03-28T18:48:15.265Z,55.25
2023-03-28T18:52:19.502Z,56.08
2023-03-28T18:56:22.768Z,56.24
2023-03-28T19:00:25.579Z,56.72
2023-03-28T19:04:28.536Z,56.77
2023-03-28T19:08:32.878Z,56.16
2023-03-28T19:12:36.403Z,57.17
2023-03-28T19:16:39.127Z,57.50
2023-03-28T19:20:42.134Z,57.18
2023-03-28T19:24:46.310Z,57.72
2023-03-28T19:28:49.565Z,57.83
2023-03-28T19:32:52.394Z,58.22
2023-03-28T19:36:55.091Z,58.48
2023-03-28T19:40:59.839Z,58.09
2023-03-28T19:45:02.512Z,58.61
2023-03-28T19:49:07.002Z,58.47
2023-03-28T19:53:09.880Z,59.15
2023-03-28T19:57:14.257Z,58.66
2023-03-28T20:01:17.015Z,59.39
2023-03-28T20:05:20.232Z,58.29
2023-03-28T20:09:24.090Z,57.76
2023-03-28T20:13:28.286Z,58.29
2023-03-28T20:17:31.254Z,59.40
2023-03-28T20:21:34.037Z,60.32
2023-03-28T20:25:36.732Z,61.57
2023-03-28T20:29:42.336Z,62.79
2023-03-28T20:33:45.137Z,64.06
2023-03-28T20:37:55.506Z,65.74
2023-03-28T20:42:05.733Z,67.62
2023-03-28T20:46:12.665Z,70.30
2023-03-28T20:50:16.097Z,72.75
2023-03-28T20:54:21.736Z,75.62
2023-03-28T20:58:24.464Z,77.84
2023-03-28T21:02:33.318Z,80.80
2023-03-28T21:06:38.196Z,82.03
2023-03-28T21:10:41.246Z,82.94
2023-03-28T21:14:43.981Z,84.20
2023-03-28T21:18:48.480Z,85.45
2023-03-28T21:22:51.243Z,85.61
2023-03-28T21:26:53.961Z,86.98
2023-03-28T21:30:58.437Z,88.28
2023-03-28T21:35:04.104Z,89.08
2023-03-28T21:39:07.863Z,89.37
2023-03-28T21:43:11.164Z,90.03
2023-03-28T21:47:14.143Z,91.13
2023-03-28T21:51:18.888Z,92.13
2023-03-28T21:55:21.616Z,92.34
2023-03-28T21:59:24.323Z,92.72
2023-03-28T22:03:27.501Z,94.15
2023-03-28T22:07:31.632Z,94.80
2023-03-28T22:11:35.186Z,95.28
2023-03-28T22:15:37.979Z,95.72
2023-03-28T22:19:40.831Z,96.56
2023-03-28T22:23:47.249Z,96.61
2023-03-28T22:27:50.355Z,97.08
2023-03-28T22:31:53.109Z,97.29
2023-03-28T22:35:57.850Z,98.87
2023-03-28T22:40:02.102Z,99.70
2023-03-28T22:44:05.024Z,100.00
2023-03-28T22:48:14.136Z,100.00
2023-03-28T22:52:16.897Z,100.00
2023-03-28T22:56:21.253Z,100.00
2023-03-28T23:00:24.491Z,100.00
2023-03-28T23:04:27.382Z,100.00
2023-03-28T23:08:31.043Z,100.00
2023-03-28T23:12:35.218Z,100.00
2023-03-28T23:16:38.320Z,100.00
2023-03-28T23:20:41.058Z,100.00
2023-03-28T23:24:43.691Z,100.00
2023-03-28T23:28:47.739Z,100.00
2023-03-28T23:32:50.662Z,100.00
2023-03-28T23:36:57.963Z,100.00
2023-03-28T23:41:00.997Z,100.00
2023-03-28T23:45:05.728Z,100.00
2023-03-28T23:49:09.083Z,100.00
2023-03-28T23:53:11.927Z,100.00
2023-03-28T23:57:14.817Z,100.00
